Time;durP1;ratioP1;P1;durP2;ratioP2;P2;SDS_P1;SDS_P2;PMS_P1;PMS_P2;Temp;Humidity;BMP_temperature;BMP_pressure;BME280_temperature;BME280_humidity;BME280_pressure;Samples;Min_cycle;Max_cycle;Signal;HPM_P1;HPM_P2
2022/11/14 00:01:18;;;;;;;3.25;1.05;;;;;;;3.99;100.00;100858.90;1689546;84;21230;-59
2022/11/14 00:04:04;;;;;;;4.95;1.55;;;;;;;3.95;100.00;100853.17;1689414;84;20991;-69
2022/11/14 00:06:50;;;;;;;8.33;1.72;;;;;;;3.93;100.00;100849.07;1689371;84;20941;-59
2022/11/14 00:09:39;;;;;;;2.98;1.10;;;;;;;3.92;100.00;100848.25;1689715;84;20957;-66
2022/11/14 00:12:24;;;;;;;2.75;1.07;;;;;;;3.91;100.00;100849.20;1689658;84;20988;-61
2022/11/14 00:15:10;;;;;;;2.92;1.30;;;;;;;3.92;100.00;100850.84;1689260;84;21172;-71
2022/11/14 00:17:57;;;;;;;2.60;0.80;;;;;;;3.95;100.00;100854.46;1689510;84;21411;-61
2022/11/14 00:20:50;;;;;;;4.17;0.90;;;;;;;4.00;100.00;100851.02;1689360;84;20980;-63
2022/11/14 00:23:35;;;;;;;3.85;1.00;;;;;;;4.05;100.00;100851.48;1689913;84;21027;-61
2022/11/14 00:26:22;;;;;;;1.62;0.62;;;;;;;4.10;100.00;100851.91;1688793;82;20952;-62
2022/11/14 00:29:09;;;;;;;3.10;0.70;;;;;;;4.12;100.00;100847.91;1689569;84;21129;-59
2022/11/14 00:31:55;;;;;;;2.80;0.90;;;;;;;4.13;100.00;100849.09;1688785;84;20885;-61
2022/11/14 00:34:41;;;;;;;3.35;0.72;;;;;;;4.14;100.00;100855.88;1689689;84;21044;-60
2022/11/14 00:37:27;;;;;;;3.02;0.60;;;;;;;4.15;100.00;100849.76;1688760;84;20866;-62
2022/11/14 00:40:13;;;;;;;2.35;0.65;;;;;;;4.18;100.00;100851.75;1689579;84;21036;-59
2022/11/14 00:42:59;;;;;;;2.25;0.50;;;;;;;4.25;100.00;100861.92;1688862;84;21100;-60
2022/11/14 00:45:45;;;;;;;1.30;0.53;;;;;;;4.35;100.00;100857.61;1689372;84;20980;-59
2022/11/14 00:48:31;;;;;;;3.12;0.40;;;;;;;4.50;100.00;100860.67;1688791;84;20845;-62
2022/11/14 00:51:16;;;;;;;3.08;0.65;;;;;;;4.57;100.00;100869.55;1689672;84;21439;-62
2022/11/14 00:54:02;;;;;;;3.27;1.10;;;;;;;4.60;100.00;100866.70;1688787;84;21533;-60
2022/11/14 00:56:48;;;;;;;2.55;0.75;;;;;;;4.66;100.00;100876.98;1689457;84;21343;-60
2022/11/14 00:59:34;;;;;;;4.47;0.88;;;;;;;4.71;100.00;100872.27;1688402;84;20992;-60
2022/11/14 01:02:21;;;;;;;1.92;0.62;;;;;;;4.77;100.00;100875.60;1689472;84;20933;-59
2022/11/14 01:05:07;;;;;;;4.03;0.75;;;;;;;4.79;100.00;100881.47;1705060;84;21108;-59
2022/11/14 01:07:53;;;;;;;2.40;0.60;;;;;;;4.73;100.00;100881.50;1707590;84;20928;-59
2022/11/14 01:10:44;;;;;;;2.12;0.40;;;;;;;4.66;100.00;100877.83;1706973;84;21314;-59
2022/11/14 01:13:33;;;;;;;1.87;0.60;;;;;;;4.53;100.00;100867.69;1707878;84;27246;-58
2022/11/14 01:16:19;;;;;;;1.52;0.40;;;;;;;4.53;100.00;100867.69;1707582;84;21468;-59
2022/11/14 01:19:04;;;;;;;3.12;0.50;;;;;;;4.47;100.00;100870.80;1707820;84;22176;-60
2022/11/14 01:21:50;;;;;;;4.53;0.68;;;;;;;4.43;100.00;100869.39;1707609;84;21065;-59
2022/11/14 01:24:36;;;;;;;2.05;0.85;;;;;;;4.42;100.00;100872.94;1707492;84;21157;-59
2022/11/14 01:27:21;;;;;;;3.15;0.50;;;;;;;4.35;100.00;100873.09;1707280;84;21356;-60
2022/11/14 01:30:07;;;;;;;1.35;0.40;;;;;;;4.32;100.00;100874.66;1707434;84;20940;-61
2022/11/14 01:32:55;;;;;;;1.82;0.45;;;;;;;4.25;100.00;100879.50;1707388;84;20990;-63
2022/11/14 01:35:41;;;;;;;3.67;0.50;;;;;;;4.21;100.00;100876.84;1707198;84;21516;-60
2022/11/14 01:38:26;;;;;;;2.30;0.37;;;;;;;4.17;100.00;100878.03;1707293;84;21243;-60
2022/11/14 01:41:14;;;;;;;1.42;0.50;;;;;;;4.11;100.00;100875.47;1707466;84;21047;-59
2022/11/14 01:43:59;;;;;;;2.00;0.40;;;;;;;4.05;100.00;100869.98;1706985;84;21038;-61
2022/11/14 01:46:46;;;;;;;5.10;0.40;;;;;;;3.99;100.00;100876.95;1707539;83;21010;-59
2022/11/14 01:49:37;;;;;;;1.80;0.60;;;;;;;3.94;100.00;100879.91;1707195;84;20979;-59
2022/11/14 01:52:32;;;;;;;1.67;0.50;;;;;;;3.84;100.00;100885.46;1707716;83;21892;-59
2022/11/14 01:55:18;;;;;;;2.22;0.47;;;;;;;3.70;100.00;100893.48;1707543;84;21348;-59
2022/11/14 01:58:03;;;;;;;1.77;0.40;;;;;;;3.54;100.00;100892.59;1707369;84;20924;-61
2022/11/14 02:00:49;;;;;;;2.58;0.50;;;;;;;3.37;100.00;100890.05;1707656;84;21463;-60
2022/11/14 02:03:37;;;;;;;1.90;0.47;;;;;;;3.20;100.00;100889.28;1704592;84;21201;-60
2022/11/14 02:06:23;;;;;;;2.00;0.50;;;;;;;3.06;100.00;100895.02;1689656;84;22510;-60
2022/11/14 02:09:10;;;;;;;2.62;0.60;;;;;;;2.95;100.00;100892.45;1689451;84;21029;-60
2022/11/14 02:11:56;;;;;;;2.02;0.88;;;;;;;2.86;100.00;100894.45;1689451;84;21039;-59
2022/11/14 02:14:44;;;;;;;2.98;1.07;;;;;;;2.77;100.00;100891.31;1689378;84;20996;-59
2022/11/14 02:17:29;;;;;;;2.87;0.90;;;;;;;2.70;100.00;100897.39;1689051;84;21182;-59
2022/11/14 02:20:23;;;;;;;3.47;1.20;;;;;;;2.62;100.00;100897.97;1689495;84;21790;-59
2022/11/14 02:23:10;;;;;;;4.53;1.00;;;;;;;2.54;100.00;100894.31;1689390;84;21490;-59
2022/11/14 02:25:55;;;;;;;2.30;1.00;;;;;;;2.51;100.00;100897.95;1689137;84;21095;-59
2022/11/14 02:28:41;;;;;;;2.10;1.00;;;;;;;2.47;100.00;100897.83;1689532;84;20913;-61
2022/11/14 02:31:27;;;;;;;5.08;1.35;;;;;;;2.41;100.00;100902.14;1689535;84;20972;-59
2022/11/14 02:34:15;;;;;;;2.60;0.90;;;;;;;2.33;100.00;100905.28;1689318;84;21169;-60
2022/11/14 02:37:00;;;;;;;2.65;1.17;;;;;;;2.26;100.00;100913.56;1689411;84;20873;-71
2022/11/14 02:39:47;;;;;;;3.27;1.15;;;;;;;2.15;100.00;100916.92;1689456;84;20961;-59
2022/11/14 02:42:32;;;;;;;2.90;1.20;;;;;;;2.08;100.00;100913.97;1689560;84;21032;-60
2022/11/14 02:45:19;;;;;;;3.25;1.47;;;;;;;2.02;100.00;100914.44;1689441;84;20983;-61
2022/11/14 02:48:05;;;;;;;2.87;0.93;;;;;;;1.97;100.00;100913.11;1689425;84;21872;-59
2022/11/14 02:50:51;;;;;;;2.98;1.05;;;;;;;1.91;100.00;100912.64;1689256;84;21792;-59
2022/11/14 02:53:36;;;;;;;3.92;0.90;;;;;;;1.88;100.00;100923.61;1689353;84;21041;-59
2022/11/14 02:56:22;;;;;;;3.02;1.00;;;;;;;1.88;100.00;100929.56;1689413;84;21529;-58
2022/11/14 02:59:09;;;;;;;3.05;1.00;;;;;;;1.86;100.00;100930.16;1689502;84;20977;-60
2022/11/14 03:01:57;;;;;;;2.47;0.90;;;;;;;1.83;100.00;100927.80;1689514;84;22104;-59
2022/11/14 03:04:43;;;;;;;2.67;0.75;;;;;;;1.82;100.00;100927.89;1689597;84;21038;-60
2022/11/14 03:07:29;;;;;;;3.30;0.70;;;;;;;1.80;100.00;100929.77;1689329;84;21035;-59
2022/11/14 03:10:16;;;;;;;2.62;0.72;;;;;;;1.81;100.00;100933.97;1689673;84;21482;-60
2022/11/14 03:13:01;;;;;;;2.98;0.80;;;;;;;1.81;100.00;100930.11;1689620;84;21261;-58
2022/11/14 03:15:47;;;;;;;4.95;0.70;;;;;;;1.81;100.00;100937.36;1689591;84;21240;-61
2022/11/14 03:18:36;;;;;;;2.50;1.17;;;;;;;1.83;100.00;100937.27;1689338;84;20924;-59
2022/11/14 03:21:22;;;;;;;2.25;0.90;;;;;;;1.86;100.00;100944.77;1689650;84;20960;-59
2022/11/14 03:24:10;;;;;;;2.52;0.78;;;;;;;1.83;100.00;100945.80;1689275;84;21521;-60
2022/11/14 03:26:55;;;;;;;2.45;0.80;;;;;;;1.81;100.00;100948.11;1689625;84;20976;-61
2022/11/14 03:29:41;;;;;;;2.37;0.70;;;;;;;1.79;100.00;100946.94;1689588;84;21242;-60
2022/11/14 03:32:26;;;;;;;2.85;1.10;;;;;;;1.79;100.00;100943.09;1689315;84;20961;-60
2022/11/14 03:35:13;;;;;;;6.75;1.95;;;;;;;1.80;100.00;100946.00;1688935;84;21530;-59
2022/11/14 03:37:58;;;;;;;6.50;1.90;;;;;;;1.75;100.00;100945.99;1689589;84;21102;-60
2022/11/14 03:40:45;;;;;;;6.15;2.20;;;;;;;1.62;100.00;100945.55;1688989;84;20992;-59
2022/11/14 03:43:33;;;;;;;4.40;1.50;;;;;;;1.50;100.00;100945.14;1689883;82;21043;-59
2022/11/14 03:46:18;;;;;;;2.27;1.07;;;;;;;1.39;100.00;100947.63;1688902;84;20917;-59
2022/11/14 03:49:05;;;;;;;5.30;1.67;;;;;;;1.33;100.00;100949.36;1689577;84;21001;-58
2022/11/14 03:51:51;;;;;;;3.02;0.90;;;;;;;1.37;100.00;100959.31;1688873;84;20932;-60
2022/11/14 03:54:37;;;;;;;2.20;0.62;;;;;;;1.35;100.00;100956.02;1689608;84;20961;-59
2022/11/14 03:57:23;;;;;;;3.10;0.90;;;;;;;1.36;100.00;100960.69;1689061;84;21231;-67
2022/11/14 04:00:09;;;;;;;2.05;1.15;;;;;;;1.36;100.00;100964.53;1689580;84;21502;-60
2022/11/14 04:02:56;;;;;;;3.08;0.88;;;;;;;1.35;100.00;100959.86;1689352;84;20964;-68
2022/11/14 04:05:44;;;;;;;2.95;1.20;;;;;;;1.36;100.00;100966.64;1677249;84;20997;-58
2022/11/14 04:08:29;;;;;;;3.25;0.85;;;;;;;1.33;100.00;100968.63;1672505;85;21015;-65
2022/11/14 04:11:16;;;;;;;2.70;1.20;;;;;;;1.27;100.00;100970.31;1673505;85;21791;-60
2022/11/14 04:14:02;;;;;;;2.85;0.95;;;;;;;1.17;100.00;100980.38;1672621;85;21302;-68
2022/11/14 04:16:49;;;;;;;2.77;1.02;;;;;;;1.13;100.00;100985.38;1673167;85;20967;-59
2022/11/14 04:19:35;;;;;;;3.55;1.12;;;;;;;1.01;100.00;100977.22;1672659;85;21133;-67
2022/11/14 04:22:21;;;;;;;3.98;1.70;;;;;;;0.90;100.00;100986.45;1673288;85;20974;-59
2022/11/14 04:25:08;;;;;;;2.62;1.27;;;;;;;0.81;100.00;100984.98;1672723;85;21157;-68
2022/11/14 04:27:53;;;;;;;3.50;1.20;;;;;;;0.70;100.00;100986.51;1673475;85;21523;-58
2022/11/14 04:30:41;;;;;;;4.65;1.35;;;;;;;0.62;100.00;100991.33;1673071;85;20983;-68
2022/11/14 04:33:27;;;;;;;3.80;1.37;;;;;;;0.56;100.00;100990.44;1672894;85;20994;-60
2022/11/14 04:36:13;;;;;;;2.45;1.07;;;;;;;0.55;100.00;100990.55;1673247;85;21484;-66
2022/11/14 04:39:00;;;;;;;2.83;1.20;;;;;;;0.55;100.00;100995.21;1673061;85;21270;-61
2022/11/14 04:41:46;;;;;;;3.85;1.10;;;;;;;0.51;100.00;100987.83;1672611;85;20990;-66
2022/11/14 04:44:31;;;;;;;5.03;1.32;;;;;;;0.46;100.00;100998.39;1673320;85;21160;-60
2022/11/14 04:47:17;;;;;;;4.87;1.25;;;;;;;0.47;100.00;100992.33;1672788;85;21069;-63
2022/11/14 04:50:04;;;;;;;3.22;1.57;;;;;;;0.45;100.00;100997.55;1673162;85;21084;-59
2022/11/14 04:52:52;;;;;;;4.37;1.98;;;;;;;0.46;100.00;101002.23;1672884;85;21277;-62
2022/11/14 04:55:38;;;;;;;5.30;1.77;;;;;;;0.46;100.00;100998.39;1673165;85;21014;-59
2022/11/14 04:58:23;;;;;;;4.35;1.27;;;;;;;0.50;100.00;100995.98;1673005;85;21010;-61
2022/11/14 05:01:10;;;;;;;5.17;1.62;;;;;;;0.56;100.00;101005.83;1672973;85;21060;-59
2022/11/14 05:03:55;;;;;;;2.65;1.07;;;;;;;0.62;100.00;101005.91;1673140;85;21022;-68
2022/11/14 05:06:41;;;;;;;5.53;1.60;;;;;;;0.76;100.00;101010.96;1673264;85;21269;-58
2022/11/14 05:09:28;;;;;;;5.85;1.40;;;;;;;1.11;100.00;101021.44;1672687;85;20876;-61
2022/11/14 05:12:14;;;;;;;4.42;1.42;;;;;;;1.75;100.00;101016.67;1672988;85;21078;-58
2022/11/14 05:15:00;;;;;;;3.50;1.40;;;;;;;2.52;100.00;101012.00;1673273;85;20883;-70
2022/11/14 05:17:47;;;;;;;4.25;1.60;;;;;;;3.28;100.00;101017.85;1673146;85;21019;-62
2022/11/14 05:20:32;;;;;;;4.30;1.62;;;;;;;4.03;100.00;101012.01;1673422;85;21262;-60
2022/11/14 05:23:20;;;;;;;4.53;2.02;;;;;;;4.78;100.00;101009.80;1673181;85;21551;-58
2022/11/14 05:26:11;;;;;;;2.98;1.40;;;;;;;5.45;100.00;101019.28;1673296;85;20982;-69
2022/11/14 05:28:57;;;;;;;4.90;1.90;;;;;;;6.13;100.00;101016.87;1690502;84;20958;-59
2022/11/14 05:31:43;;;;;;;4.23;1.93;;;;;;;6.72;100.00;101019.78;1673210;85;21596;-68
2022/11/14 05:34:29;;;;;;;5.13;1.83;;;;;;;7.24;100.00;101018.89;1673234;85;21316;-60
2022/11/14 05:37:15;;;;;;;6.00;2.20;;;;;;;7.75;100.00;101014.94;1672932;84;21304;-62
2022/11/14 05:40:01;;;;;;;3.33;1.70;;;;;;;8.24;100.00;101020.13;1673306;85;21376;-59
2022/11/14 05:42:46;;;;;;;4.93;2.00;;;;;;;8.72;100.00;101027.21;1672713;85;21782;-62
2022/11/14 05:45:32;;;;;;;6.40;3.20;;;;;;;9.22;100.00;101025.23;1673474;85;21820;-60
2022/11/14 05:48:18;;;;;;;5.73;3.23;;;;;;;9.69;100.00;101027.36;1672886;85;21175;-62
2022/11/14 05:51:05;;;;;;;6.37;2.73;;;;;;;10.07;100.00;101027.27;1673254;85;21026;-62
2022/11/14 05:53:51;;;;;;;5.23;2.53;;;;;;;10.39;100.00;101026.54;1672827;85;20915;-61
2022/11/14 05:56:37;;;;;;;4.43;2.33;;;;;;;10.77;100.00;101027.34;1673225;85;20931;-60
2022/11/14 05:59:23;;;;;;;4.57;2.40;;;;;;;11.26;100.00;101031.95;1672693;85;21009;-61
2022/11/14 06:02:08;;;;;;;4.97;2.20;;;;;;;11.59;100.00;101030.49;1673098;85;21073;-60
2022/11/14 06:04:54;;;;;;;4.97;2.30;;;;;;;12.03;100.00;101032.58;1672819;84;21070;-60
2022/11/14 06:07:41;;;;;;;3.03;1.70;;;;;;;12.34;100.00;101033.32;1673307;85;21579;-60
2022/11/14 06:10:27;;;;;;;4.90;2.70;;;;;;;12.68;100.00;101033.37;1672777;85;21000;-60
2022/11/14 06:13:14;;;;;;;5.03;2.40;;;;;;;12.89;100.00;101034.81;1673057;85;21042;-59
2022/11/14 06:16:06;;;;;;;4.63;2.33;;;;;;;13.01;100.00;101025.20;1673106;85;21720;-59
2022/11/14 06:18:52;;;;;;;4.13;2.00;;;;;;;13.00;100.00;101026.21;1673159;85;20975;-61
2022/11/14 06:21:39;;;;;;;3.97;1.67;;;;;;;13.22;100.00;101025.78;1673303;85;21856;-60
2022/11/14 06:24:25;;;;;;;4.00;2.00;;;;;;;13.59;100.00;101030.11;1673219;85;21547;-60
2022/11/14 06:27:11;;;;;;;4.60;2.10;;;;;;;13.95;100.00;101027.50;1673334;84;22034;-60
2022/11/14 06:29:59;;;;;;;3.40;2.00;;;;;;;14.32;100.00;101027.75;1673220;85;20979;-59
2022/11/14 06:32:44;;;;;;;3.60;2.07;;;;;;;14.87;100.00;101020.11;1673534;85;21540;-60
2022/11/14 06:35:32;;;;;;;5.33;3.80;;;;;;;15.36;93.22;101017.04;1673498;85;21025;-59
2022/11/14 06:38:17;;;;;;;4.60;3.10;;;;;;;15.77;86.82;101015.19;1673201;85;21053;-60
2022/11/14 06:41:06;;;;;;;3.60;2.30;;;;;;;15.99;81.17;101015.05;1673289;85;21651;-60
2022/11/14 06:43:53;;;;;;;3.83;2.27;;;;;;;16.32;74.21;101023.45;1673581;85;21134;-60
2022/11/14 06:46:39;;;;;;;3.50;1.77;;;;;;;16.57;67.79;101020.53;1673339;85;20947;-60
2022/11/14 06:49:27;;;;;;;4.00;1.57;;;;;;;16.78;66.19;101021.66;1673335;85;21968;-60
2022/11/14 06:52:13;;;;;;;3.80;1.37;;;;;;;17.10;62.06;101023.09;1673353;84;21110;-62
2022/11/14 06:54:59;;;;;;;2.97;1.23;;;;;;;17.23;60.93;101016.97;1673275;85;21144;-60
2022/11/14 06:57:44;;;;;;;2.60;1.27;;;;;;;17.31;56.91;101018.56;1673512;85;21261;-60
2022/11/14 07:00:31;;;;;;;2.23;1.00;;;;;;;17.23;54.58;101016.45;1673518;85;21077;-59
2022/11/14 07:03:17;;;;;;;3.03;1.13;;;;;;;17.26;55.40;101016.55;1673344;85;21070;-59
2022/11/14 07:06:03;;;;;;;3.57;1.30;;;;;;;17.34;54.37;101013.68;1680937;83;21548;-59
2022/11/14 07:08:50;;;;;;;3.00;1.30;;;;;;;17.25;55.08;101007.04;1689488;84;21005;-63
2022/11/14 07:11:36;;;;;;;3.70;1.47;;;;;;;17.38;52.83;101019.34;1689717;84;21296;-59
2022/11/14 07:14:23;;;;;;;3.77;1.50;;;;;;;17.47;51.67;101011.52;1688996;84;21020;-68
2022/11/14 07:17:09;;;;;;;2.80;1.17;;;;;;;17.62;52.53;101019.96;1689522;84;20930;-58
2022/11/14 07:19:54;;;;;;;2.13;1.10;;;;;;;17.91;51.76;101019.10;1689441;84;21036;-67
2022/11/14 07:22:41;;;;;;;2.20;1.30;;;;;;;18.25;49.62;101021.81;1689776;84;20976;-59
2022/11/14 07:25:28;;;;;;;2.07;1.07;;;;;;;18.33;48.52;101026.02;1689231;84;21284;-63
2022/11/14 07:28:14;;;;;;;2.40;1.20;;;;;;;18.38;47.37;101023.55;1689546;84;20972;-59
2022/11/14 07:31:02;;;;;;;2.77;1.13;;;;;;;18.22;46.87;101025.70;1689274;84;20881;-66
2022/11/14 07:33:47;;;;;;;1.90;1.10;;;;;;;18.11;45.90;101027.72;1666992;84;20874;-59
2022/11/14 07:36:33;;;;;;;3.07;1.10;;;;;;;17.92;45.36;101026.02;1689196;84;21016;-61
2022/11/14 07:39:18;;;;;;;2.20;0.97;;;;;;;17.61;45.81;101024.91;1689506;84;21962;-58
2022/11/14 07:42:04;;;;;;;3.70;1.03;;;;;;;17.52;46.69;101030.14;1689399;84;21743;-62
2022/11/14 07:44:51;;;;;;;2.33;0.97;;;;;;;17.55;46.20;101040.27;1689543;84;21039;-59
2022/11/14 07:47:37;;;;;;;2.63;1.03;;;;;;;17.67;46.34;101045.69;1689646;84;21541;-67
2022/11/14 07:50:24;;;;;;;1.87;0.90;;;;;;;17.71;46.23;101040.29;1689638;84;21007;-59
2022/11/14 07:53:10;;;;;;;2.40;1.00;;;;;;;17.74;45.85;101043.31;1689672;84;21164;-60
2022/11/14 07:55:56;;;;;;;1.73;0.93;;;;;;;17.74;44.94;101034.09;1689611;84;20980;-59
2022/11/14 07:58:42;;;;;;;2.43;1.13;;;;;;;17.49;45.04;101033.99;1689862;84;20889;-61
2022/11/14 08:01:28;;;;;;;2.47;1.20;;;;;;;17.39;44.85;101036.28;1689336;84;20956;-59
2022/11/14 08:04:14;;;;;;;2.00;0.97;;;;;;;17.29;44.72;101032.47;1689477;84;20985;-67
2022/11/14 08:06:59;;;;;;;2.67;1.10;;;;;;;17.23;44.11;101022.23;1702786;84;21786;-59
2022/11/14 08:09:45;;;;;;;2.80;1.10;;;;;;;16.96;43.26;101023.63;1707850;84;20964;-67
2022/11/14 08:12:31;;;;;;;1.77;0.90;;;;;;;16.43;43.75;101030.23;1707852;83;20948;-58
2022/11/14 08:15:18;;;;;;;3.30;1.20;;;;;;;16.17;45.23;101030.22;1707384;84;20955;-68
2022/11/14 08:18:05;;;;;;;2.80;1.10;;;;;;;16.23;45.35;101026.29;1708042;84;20966;-59
2022/11/14 08:20:51;;;;;;;3.33;1.77;;;;;;;16.19;44.53;101025.08;1707439;84;21273;-68
2022/11/14 08:23:37;;;;;;;4.83;2.00;;;;;;;16.03;44.55;101030.73;1707872;84;21006;-59
2022/11/14 08:26:23;;;;;;;3.40;2.07;;;;;;;15.97;45.52;101024.94;1707020;84;20983;-59
2022/11/14 08:29:09;;;;;;;3.17;1.33;;;;;;;16.09;45.01;101034.36;1707698;84;20966;-58
2022/11/14 08:31:54;;;;;;;3.27;1.13;;;;;;;16.12;44.22;101026.88;1706795;83;21137;-60
2022/11/14 08:34:40;;;;;;;1.83;0.80;;;;;;;16.10;44.36;101022.34;1707695;84;21282;-60
2022/11/14 08:37:26;;;;;;;2.27;1.17;;;;;;;16.10;43.92;101022.34;1707206;84;21034;-63
2022/11/14 08:40:12;;;;;;;3.43;0.80;;;;;;;16.11;43.92;101023.16;1707409;83;20931;-59
2022/11/14 08:43:00;;;;;;;3.00;0.80;;;;;;;16.13;43.93;101023.74;1707089;83;20923;-65
2022/11/14 08:45:47;;;;;;;4.03;1.30;;;;;;;16.07;44.13;101014.85;1707846;84;21471;-58
2022/11/14 08:48:33;;;;;;;5.17;1.67;;;;;;;16.07;43.35;101012.22;1706784;83;21181;-60
2022/11/14 08:51:19;;;;;;;3.50;1.60;;;;;;;15.80;43.33;101012.68;1707513;84;20896;-59
2022/11/14 08:54:04;;;;;;;4.37;1.77;;;;;;;15.29;44.02;101013.88;1706883;84;20971;-61
2022/11/14 08:56:51;;;;;;;5.47;1.67;;;;;;;14.94;45.36;101012.28;1707654;84;20841;-58
2022/11/14 08:59:36;;;;;;;5.10;1.63;;;;;;;14.83;45.85;101014.43;1707425;84;21043;-59
2022/11/14 09:02:22;;;;;;;3.23;0.93;;;;;;;14.84;46.74;101018.67;1707637;84;21223;-59
2022/11/14 09:05:09;;;;;;;3.33;1.30;;;;;;;15.04;46.91;101007.50;1707085;84;21050;-59
2022/11/14 09:07:55;;;;;;;3.30;0.80;;;;;;;15.04;46.15;101010.13;1707502;84;20970;-57
2022/11/14 09:10:40;;;;;;;4.43;1.30;;;;;;;14.82;46.44;101018.06;1706948;84;21046;-58
2022/11/14 09:13:28;;;;;;;3.87;1.77;;;;;;;14.83;46.95;101015.75;1707711;84;20931;-59
2022/11/14 09:16:14;;;;;;;3.90;1.53;;;;;;;14.78;46.50;101005.02;1707739;83;21686;-59
2022/11/14 09:19:01;;;;;;;3.67;0.70;;;;;;;14.66;47.18;101005.25;1707437;84;21046;-59
2022/11/14 09:21:46;;;;;;;3.90;0.67;;;;;;;14.57;47.28;101012.43;1707729;84;21050;-59
2022/11/14 09:24:32;;;;;;;2.50;0.57;;;;;;;14.43;47.27;101014.61;1707421;84;20924;-59
2022/11/14 09:27:18;;;;;;;3.03;0.90;;;;;;;14.43;47.23;101007.23;1707981;84;21064;-59
2022/11/14 09:30:05;;;;;;;9.07;1.97;;;;;;;14.52;47.63;101006.14;1707695;83;21483;-60
2022/11/14 09:32:51;;;;;;;4.10;1.27;;;;;;;14.45;46.73;101003.44;1707570;84;21328;-60
2022/11/14 09:35:37;;;;;;;3.97;0.77;;;;;;;14.12;47.31;100997.91;1707541;84;20861;-58
2022/11/14 09:38:22;;;;;;;1.67;0.60;;;;;;;13.83;48.15;101006.21;1707894;83;21100;-59
2022/11/14 09:41:24;;;;;;;2.03;0.80;;;;;;;13.66;49.06;101001.38;1707618;84;20876;-61
2022/11/14 09:44:37;;;;;;;2.40;0.80;;;;;;;13.52;49.65;101001.71;1707698;84;21792;-59
2022/11/14 09:47:33;;;;;;;2.23;0.83;;;;;;;13.42;51.10;100997.28;1707708;83;20940;-58
2022/11/14 09:50:26;;;;;;;3.57;1.67;;;;;;;13.65;51.92;100990.59;1707332;84;20920;-67
2022/11/14 09:53:19;;;;;;;2.70;0.90;;;;;;;13.92;50.68;100992.98;1707388;84;20978;-58
2022/11/14 09:56:09;;;;;;;3.13;1.27;;;;;;;14.01;50.74;100983.48;1707207;84;20988;-59
2022/11/14 09:58:55;;;;;;;2.67;0.73;;;;;;;14.20;50.54;100984.66;1707669;84;21274;-60
2022/11/14 10:02:09;;;;;;;2.60;0.90;;;;;;;14.19;49.57;100976.99;1687284;83;21050;-60
2022/11/14 10:05:22;;;;;;;2.33;0.73;;;;;;;14.23;49.89;100978.23;1707325;84;21492;-60
2022/11/14 10:09:00;;;;;;;2.70;0.80;;;;;;;14.42;49.50;100978.08;1707009;84;21002;-59
2022/11/14 10:12:08;;;;;;;1.93;0.90;;;;;;;14.55;48.80;100975.60;1707568;83;21016;-59
2022/11/14 10:15:19;;;;;;;5.60;0.87;;;;;;;14.56;48.99;100968.84;1707628;84;21270;-59
2022/11/14 10:18:42;;;;;;;2.67;1.10;;;;;;;14.62;48.49;100967.75;1707414;84;20924;-59
2022/11/14 10:21:57;;;;;;;2.73;0.77;;;;;;;14.59;48.62;100961.91;1706762;84;20983;-58
2022/11/14 10:25:04;;;;;;;5.30;2.90;;;;;;;14.46;48.64;100968.83;1706673;83;21049;-59
2022/11/14 10:28:06;;;;;;;4.67;1.70;;;;;;;14.51;48.83;100969.12;1707529;83;20987;-58
2022/11/14 10:31:03;;;;;;;3.80;1.40;;;;;;;14.47;48.11;100970.44;1707345;83;21270;-59
2022/11/14 10:34:08;;;;;;;2.07;0.90;;;;;;;14.27;48.78;100967.17;1707629;84;21224;-58
2022/11/14 10:37:21;;;;;;;1.70;0.53;;;;;;;14.16;48.96;100970.81;1707284;84;21461;-68
2022/11/14 10:40:24;;;;;;;3.90;1.35;;;;;;;14.16;49.61;100967.69;1707500;84;20998;-59
2022/11/14 10:43:30;;;;;;;6.57;3.47;;;;;;;14.18;49.81;100964.39;1707883;84;21367;-59
2022/11/14 10:46:28;;;;;;;2.73;1.13;;;;;;;14.27;50.73;100969.80;1707781;83;21340;-60
2022/11/14 10:49:18;;;;;;;2.70;0.87;;;;;;;14.31;48.77;100960.55;1706832;84;20991;-60
2022/11/14 10:52:14;;;;;;;1.72;0.90;;;;;;;14.12;48.68;100971.18;1707808;84;20996;-58
2022/11/14 10:55:07;;;;;;;1.30;0.50;;;;;;;13.92;48.89;100967.58;1707642;83;21030;-60
2022/11/14 10:57:53;;;;;;;2.13;0.90;;;;;;;13.67;49.25;100976.29;1707588;84;21044;-60
2022/11/14 11:00:38;;;;;;;2.57;0.60;;;;;;;13.53;50.37;100970.11;1707460;84;21278;-59
2022/11/14 11:03:42;;;;;;;2.97;1.00;;;;;;;13.56;51.52;100968.91;1707408;84;20933;-69
2022/11/14 11:06:28;;;;;;;1.67;0.60;;;;;;;13.66;50.92;100975.98;1707166;83;20884;-59
2022/11/14 11:12:51;;;;;;;2.03;0.40;;;;;;;13.43;50.10;100978.75;1689594;84;21043;-61
2022/11/14 11:15:41;;;;;;;1.40;0.50;;;;;;;13.18;50.77;100976.90;1689430;84;21163;-60
2022/11/14 11:18:30;;;;;;;1.10;0.43;;;;;;;13.00;51.56;100973.87;1689646;84;20964;-59
2022/11/14 11:21:21;;;;;;;1.70;0.70;;;;;;;12.91;51.80;100973.94;1688859;84;21005;-60
2022/11/14 11:24:08;;;;;;;1.90;0.80;;;;;;;12.78;52.47;100969.84;1689629;84;21025;-60
2022/11/14 11:27:24;;;;;;;1.97;0.60;;;;;;;12.73;54.37;100974.81;1689493;84;21059;-60
2022/11/14 11:30:22;;;;;;;2.73;0.77;;;;;;;12.83;53.93;100970.10;1689170;84;20925;-58
2022/11/14 11:33:23;;;;;;;2.40;1.00;;;;;;;12.83;53.79;100974.53;1689393;84;21075;-59
2022/11/14 11:36:15;;;;;;;3.30;1.10;;;;;;;12.72;54.06;100980.20;1689899;84;21542;-59
2022/11/14 11:39:01;;;;;;;2.70;0.97;;;;;;;12.60;54.44;100978.52;1689045;84;21000;-59
2022/11/14 11:41:46;;;;;;;2.27;1.00;;;;;;;12.51;56.17;100982.22;1689645;84;20976;-60
2022/11/14 11:44:39;;;;;;;1.77;0.93;;;;;;;12.53;56.29;100979.72;1689112;84;21267;-59
2022/11/14 11:47:24;;;;;;;2.20;0.90;;;;;;;12.51;55.90;100974.38;1689791;84;20969;-58
2022/11/14 11:50:18;;;;;;;2.80;0.73;;;;;;;12.37;56.24;100975.95;1689423;84;21337;-59
2022/11/14 11:53:30;;;;;;;2.87;1.20;;;;;;;12.31;57.83;100974.88;1689514;84;20928;-60
2022/11/14 11:56:20;;;;;;;5.83;1.73;;;;;;;12.36;57.85;100972.53;1689770;84;20993;-60
2022/11/14 11:59:27;;;;;;;4.50;1.80;;;;;;;12.23;57.75;100967.08;1689631;84;21270;-58
2022/11/14 12:02:24;;;;;;;6.00;2.07;;;;;;;12.13;60.20;100966.53;1689285;84;21526;-58
2022/11/14 12:05:13;;;;;;;3.43;1.33;;;;;;;12.09;60.42;100975.70;1689508;84;21064;-59
2022/11/14 12:08:12;;;;;;;3.33;1.00;;;;;;;11.97;61.54;100970.55;1689384;84;21004;-58
2022/11/14 12:10:57;;;;;;;2.33;0.87;;;;;;;11.90;59.89;100973.88;1689153;84;21501;-58
2022/11/14 12:14:16;;;;;;;3.57;1.10;;;;;;;11.77;60.63;100977.52;1689482;84;21270;-57
2022/11/14 12:17:21;;;;;;;1.90;0.70;;;;;;;11.66;60.68;100973.98;1689410;84;21469;-60
2022/11/14 12:20:39;;;;;;;2.10;0.87;;;;;;;11.44;61.65;100981.63;1689773;84;21369;-58
2022/11/14 12:23:48;;;;;;;3.10;1.37;;;;;;;11.26;63.98;100974.53;1689550;84;21090;-58
2022/11/14 12:26:54;;;;;;;4.20;1.30;;;;;;;11.12;64.95;101020.89;1689125;84;21533;-57
2022/11/14 12:30:10;;;;;;;5.17;2.03;;;;;;;10.83;65.89;100974.50;1689538;84;21313;-62
2022/11/14 12:33:05;;;;;;;4.80;2.00;;;;;;;10.48;69.31;100979.93;1689138;84;21633;-67
2022/11/14 12:35:54;;;;;;;6.70;3.20;;;;;;;10.17;74.30;100980.24;1689460;84;21605;-58
2022/11/14 12:38:47;;;;;;;7.43;3.20;;;;;;;9.98;80.89;100980.06;1689138;84;21543;-60
2022/11/14 12:41:35;;;;;;;6.20;2.67;;;;;;;9.90;85.78;100982.17;1689732;84;21579;-59
2022/11/14 12:44:33;;;;;;;5.10;2.73;;;;;;;9.92;90.30;100979.40;1689699;84;21629;-59
2022/11/14 12:47:27;;;;;;;4.17;1.83;;;;;;;9.94;92.22;100982.67;1689046;84;21486;-60
2022/11/14 12:50:30;;;;;;;2.17;1.00;;;;;;;9.93;92.36;100987.56;1689625;84;21716;-60
2022/11/14 12:53:36;;;;;;;4.00;1.23;;;;;;;9.87;91.66;100986.89;1689477;84;21625;-58
2022/11/14 12:56:36;;;;;;;2.17;1.00;;;;;;;9.64;92.04;101025.23;1689586;84;21934;-58
2022/11/14 12:59:49;;;;;;;3.63;1.20;;;;;;;9.32;99.02;100993.41;1689011;84;21494;-59
2022/11/14 13:03:23;;;;;;;3.47;1.50;;;;;;;9.20;100.00;100993.34;1689266;84;21261;-60
2022/11/14 13:06:28;;;;;;;4.00;1.70;;;;;;;9.20;100.00;100993.34;1689379;84;21929;-59
2022/11/14 13:09:59;;;;;;;5.53;1.90;;;;;;;8.96;100.00;100992.25;1689857;84;21337;-65
2022/11/14 13:22:41;;;;;;;8.17;3.60;;;;;;;8.43;100.00;100996.29;1689400;84;21198;-67